createdAt,value
2023-02-18T00:01:37.947Z,13.83
2023-02-18T00:04:05.426Z,14.07
2023-02-18T00:06:35.558Z,13.57
2023-02-18T00:09:05.063Z,13.73
2023-02-18T00:11:35.275Z,12.90
2023-02-18T00:14:04.650Z,13.33
2023-02-18T00:16:32.540Z,12.83
2023-02-18T00:19:05.395Z,11.90
2023-02-18T00:21:34.578Z,12.17
2023-02-18T00:24:02.744Z,12.03
2023-02-18T00:26:30.316Z,12.20
2023-02-18T00:28:57.821Z,13.03
2023-02-18T00:31:31.235Z,11.83
2023-02-18T00:34:01.168Z,11.67
2023-02-18T00:36:29.246Z,12.13
2023-02-18T00:38:59.467Z,12.23
2023-02-18T00:41:29.221Z,12.83
2023-02-18T00:43:57.623Z,13.43
2023-02-18T00:46:25.896Z,11.80
2023-02-18T00:48:54.877Z,12.00
2023-02-18T00:51:23.081Z,11.67
2023-02-18T00:53:50.567Z,12.83
2023-02-18T00:56:18.345Z,12.37
2023-02-18T00:58:45.957Z,12.10
2023-02-18T01:01:13.845Z,11.87
2023-02-18T01:03:42.898Z,11.67
2023-02-18T01:06:12.134Z,12.63
2023-02-18T01:08:40.840Z,12.30
2023-02-18T01:11:10.602Z,12.47
2023-02-18T01:13:38.556Z,13.50
2023-02-18T01:16:08.593Z,13.20
2023-02-18T01:18:37.070Z,13.23
2023-02-18T01:21:08.661Z,13.53
2023-02-18T01:23:38.497Z,12.33
2023-02-18T01:26:06.331Z,12.03
2023-02-18T01:28:34.037Z,12.57
2023-02-18T01:31:09.399Z,12.10
2023-02-18T01:33:37.183Z,12.57
2023-02-18T01:36:05.563Z,12.00
2023-02-18T01:38:33.168Z,12.83
2023-02-18T01:41:01.821Z,11.63
2023-02-18T01:43:29.640Z,13.20
2023-02-18T01:46:08.977Z,11.93
2023-02-18T01:48:46.211Z,12.33
2023-02-18T01:51:17.753Z,13.43
2023-02-18T01:53:56.868Z,14.20
2023-02-18T01:56:28.904Z,12.83
2023-02-18T01:59:00.368Z,13.23
2023-02-18T02:01:28.863Z,12.00
2023-02-18T02:03:56.296Z,13.47
2023-02-18T02:06:26.218Z,12.73
2023-02-18T02:08:59.701Z,13.33
2023-02-18T02:11:30.047Z,13.80
2023-02-18T02:14:00.510Z,13.33
2023-02-18T02:16:49.176Z,12.63
2023-02-18T02:19:42.704Z,11.13
2023-02-18T02:22:28.451Z,12.27
2023-02-18T02:25:08.073Z,11.43
2023-02-18T02:27:44.250Z,12.60
2023-02-18T02:30:30.150Z,12.33
2023-02-18T02:33:28.893Z,12.97
2023-02-18T02:35:59.439Z,13.32
2023-02-18T02:38:34.086Z,12.60
2023-02-18T02:41:18.470Z,12.93
2023-02-18T02:44:07.032Z,10.07
2023-02-18T02:46:51.343Z,10.80
2023-02-18T02:49:38.023Z,13.50
2023-02-18T02:52:12.156Z,13.70
2023-02-18T02:54:40.213Z,12.13
2023-02-18T02:57:13.882Z,11.83
2023-02-18T02:59:59.467Z,12.03
2023-02-18T03:02:46.557Z,11.10
2023-02-18T03:06:07.790Z,13.33
2023-02-18T03:08:52.659Z,11.03
2023-02-18T03:11:20.275Z,13.10
2023-02-18T03:13:53.663Z,12.50
2023-02-18T03:16:36.673Z,11.63
2023-02-18T03:19:16.743Z,16.00
2023-02-18T03:21:59.030Z,14.87
2023-02-18T03:24:34.845Z,15.57
2023-02-18T03:27:15.453Z,15.85
2023-02-18T03:29:46.451Z,17.83
2023-02-18T03:32:18.478Z,17.80
2023-02-18T03:34:50.993Z,19.83
2023-02-18T03:37:19.945Z,18.67
2023-02-18T03:39:56.151Z,19.00
2023-02-18T03:42:28.740Z,18.87
2023-02-18T03:44:56.583Z,18.70
2023-02-18T03:47:25.260Z,15.17
2023-02-18T03:49:52.743Z,20.63
2023-02-18T03:52:20.240Z,18.37
2023-02-18T03:54:47.907Z,21.67
2023-02-18T03:57:15.369Z,20.17
2023-02-18T03:59:42.860Z,19.97
2023-02-18T04:02:10.320Z,15.60
2023-02-18T04:04:37.866Z,19.67
2023-02-18T04:07:05.850Z,18.80
2023-02-18T04:09:33.377Z,16.60
2023-02-18T04:12:00.843Z,17.43
2023-02-18T04:14:28.493Z,14.53
2023-02-18T04:16:55.982Z,16.70
2023-02-18T04:19:23.468Z,14.03
2023-02-18T04:21:51.206Z,16.37
2023-02-18T04:24:18.612Z,16.13
2023-02-18T04:26:46.265Z,15.87
2023-02-18T04:29:13.721Z,18.37
2023-02-18T04:31:41.366Z,17.50
2023-02-18T04:34:08.974Z,16.03
2023-02-18T04:36:36.513Z,16.53
2023-02-18T04:39:04.738Z,17.30
2023-02-18T04:41:32.224Z,17.43
2023-02-18T04:44:00.729Z,18.50
2023-02-18T04:46:28.689Z,18.20
2023-02-18T04:48:56.106Z,19.33
2023-02-18T04:51:24.171Z,16.80
2023-02-18T04:53:51.620Z,17.07
2023-02-18T04:56:19.094Z,16.07
2023-02-18T04:58:46.994Z,18.57
2023-02-18T05:01:14.562Z,20.83
2023-02-18T05:03:42.207Z,17.60
2023-02-18T05:06:10.031Z,17.30
2023-02-18T05:08:37.870Z,16.90
2023-02-18T05:11:07.329Z,16.13
2023-02-18T05:13:34.977Z,15.40
2023-02-18T05:16:02.740Z,14.03
2023-02-18T05:18:30.238Z,14.17
2023-02-18T05:20:57.710Z,12.87
2023-02-18T05:23:26.074Z,13.97
2023-02-18T05:25:55.001Z,14.60
2023-02-18T05:28:22.839Z,14.63
2023-02-18T05:30:50.396Z,14.73
2023-02-18T05:33:17.917Z,15.00
2023-02-18T05:35:45.442Z,12.00
2023-02-18T05:38:12.882Z,15.30
2023-02-18T05:40:40.810Z,14.33
2023-02-18T05:43:08.213Z,16.33
2023-02-18T05:45:36.260Z,16.03
2023-02-18T05:48:03.873Z,17.20
2023-02-18T05:50:31.755Z,14.83
2023-02-18T05:52:59.389Z,14.47
2023-02-18T05:55:27.051Z,15.20
2023-02-18T05:57:54.605Z,14.27
2023-02-18T06:00:22.191Z,16.07
2023-02-18T06:02:51.167Z,14.20
2023-02-18T06:05:18.794Z,14.73
2023-02-18T06:07:46.213Z,15.67
2023-02-18T06:10:13.819Z,15.33
2023-02-18T06:12:41.394Z,14.53
2023-02-18T06:15:09.095Z,16.17
2023-02-18T06:17:36.695Z,14.93
2023-02-18T06:20:04.518Z,11.20
2023-02-18T06:22:32.103Z,13.30
2023-02-18T06:24:59.541Z,15.17
2023-02-18T06:27:27.179Z,15.30
2023-02-18T06:29:54.622Z,15.33
2023-02-18T06:32:22.361Z,15.20
2023-02-18T06:34:49.873Z,13.80
2023-02-18T06:37:17.324Z,15.17
2023-02-18T06:39:44.846Z,13.53
2023-02-18T06:42:13.391Z,12.70
2023-02-18T06:44:42.012Z,12.53
2023-02-18T06:47:09.464Z,11.67
2023-02-18T06:49:37.284Z,12.40
2023-02-18T06:52:05.814Z,10.93
2023-02-18T06:54:34.510Z,10.40
2023-02-18T06:57:02.049Z,11.73
2023-02-18T06:59:29.501Z,10.03
2023-02-18T07:01:56.941Z,10.73
2023-02-18T07:04:24.471Z,10.53
2023-02-18T07:06:51.964Z,10.30
2023-02-18T07:09:19.529Z,11.07
2023-02-18T07:11:46.994Z,9.87
2023-02-18T07:14:14.430Z,9.77
2023-02-18T07:16:42.140Z,9.77
2023-02-18T07:19:09.843Z,9.43
2023-02-18T07:21:37.432Z,9.17
2023-02-18T07:24:05.296Z,9.40
2023-02-18T07:26:32.805Z,7.40
2023-02-18T07:29:00.392Z,6.03
2023-02-18T07:31:28.160Z,8.50
2023-02-18T07:33:57.293Z,7.60
2023-02-18T07:36:24.927Z,6.30
2023-02-18T07:38:52.392Z,8.27
2023-02-18T07:41:22.539Z,6.63
2023-02-18T07:43:50.499Z,6.37
2023-02-18T07:46:19.433Z,6.97
2023-02-18T07:48:47.143Z,7.30
2023-02-18T07:51:14.630Z,5.83
2023-02-18T07:53:42.231Z,6.80
2023-02-18T07:56:10.061Z,6.13
2023-02-18T07:58:39.076Z,6.37
2023-02-18T08:01:08.879Z,6.03
2023-02-18T08:03:36.548Z,5.73
2023-02-18T08:06:05.966Z,6.37
2023-02-18T08:08:36.723Z,6.43
2023-02-18T08:11:18.506Z,5.70
2023-02-18T08:13:47.527Z,5.83
2023-02-18T08:16:16.787Z,5.40
2023-02-18T08:18:44.938Z,5.47
2023-02-18T08:21:12.404Z,6.60
2023-02-18T08:23:40.318Z,5.27
2023-02-18T08:26:08.173Z,5.57
2023-02-18T08:28:43.549Z,5.53
2023-02-18T08:31:20.670Z,5.73
2023-02-18T08:33:48.719Z,5.15
2023-02-18T08:36:16.186Z,5.70
2023-02-18T08:38:43.784Z,6.00
2023-02-18T08:41:11.672Z,5.40
2023-02-18T08:43:39.213Z,6.20
2023-02-18T08:46:06.786Z,5.50
2023-02-18T08:48:34.423Z,5.40
2023-02-18T08:51:15.777Z,5.97
2023-02-18T08:53:43.643Z,5.70
2023-02-18T08:56:11.378Z,5.10
2023-02-18T08:58:39.134Z,5.20
2023-02-18T09:01:09.764Z,5.40
2023-02-18T09:03:37.753Z,5.23
2023-02-18T09:06:05.888Z,5.40
2023-02-18T09:08:33.459Z,5.70
2023-02-18T09:11:04.564Z,5.23
2023-02-18T09:13:33.624Z,5.07
2023-02-18T09:16:04.431Z,5.00
2023-02-18T09:18:33.387Z,5.20
2023-02-18T09:21:01.172Z,5.47
2023-02-18T09:23:30.809Z,5.53
2023-02-18T09:25:59.065Z,6.00
2023-02-18T09:28:27.428Z,5.80
2023-02-18T09:30:55.151Z,6.17
2023-02-18T09:33:22.923Z,5.80
2023-02-18T09:35:50.422Z,5.10
2023-02-18T09:38:18.565Z,5.97
2023-02-18T09:40:52.237Z,5.97
2023-02-18T09:43:35.054Z,5.30
2023-02-18T09:46:04.947Z,5.60
2023-02-18T09:48:36.244Z,5.73
2023-02-18T09:51:04.057Z,6.07
2023-02-18T09:53:31.489Z,5.97
2023-02-18T09:56:00.627Z,5.67
2023-02-18T09:58:31.803Z,6.83
2023-02-18T10:01:11.373Z,5.90
2023-02-18T10:03:40.713Z,6.30
2023-02-18T10:06:16.349Z,5.57
2023-02-18T10:08:47.514Z,6.23
2023-02-18T10:11:28.801Z,6.03
2023-02-18T10:13:58.678Z,5.97
2023-02-18T10:16:26.260Z,6.77
2023-02-18T10:18:59.992Z,7.03
2023-02-18T10:21:31.466Z,6.17
2023-02-18T10:24:16.698Z,6.30
2023-02-18T10:26:44.255Z,6.47
2023-02-18T10:29:20.922Z,5.80
2023-02-18T10:32:19.658Z,6.90
2023-02-18T10:35:24.578Z,6.28
2023-02-18T10:38:16.177Z,6.03
2023-02-18T10:41:09.756Z,6.03
2023-02-18T10:43:53.274Z,6.13
2023-02-18T10:46:58.797Z,6.93
2023-02-18T10:49:54.203Z,5.77
2023-02-18T10:52:22.110Z,6.53
2023-02-18T10:54:58.061Z,6.83
2023-02-18T10:57:26.454Z,7.67
2023-02-18T11:00:19.117Z,6.17
2023-02-18T11:02:48.274Z,6.20
2023-02-18T11:05:24.821Z,5.87
2023-02-18T11:07:54.794Z,7.28
2023-02-18T11:10:27.426Z,6.67
2023-02-18T11:13:02.116Z,6.60
2023-02-18T11:15:30.627Z,7.13
2023-02-18T11:18:26.863Z,7.27
2023-02-18T11:21:00.391Z,7.33
2023-02-18T11:23:28.140Z,7.40
2023-02-18T11:26:03.280Z,7.30
2023-02-18T11:28:45.554Z,7.37
2023-02-18T11:31:25.625Z,6.90
2023-02-18T11:33:57.651Z,8.00
2023-02-18T11:36:43.711Z,7.63
2023-02-18T11:39:27.339Z,6.80
2023-02-18T11:41:58.348Z,6.80
2023-02-18T11:44:34.797Z,8.20
2023-02-18T11:47:20.254Z,6.90
2023-02-18T11:50:01.830Z,6.63
2023-02-18T11:52:39.589Z,6.80
2023-02-18T11:55:15.566Z,6.15
2023-02-18T11:57:52.445Z,6.03
2023-02-18T12:00:22.641Z,6.43
2023-02-18T12:02:53.125Z,5.93
2023-02-18T12:05:27.088Z,5.80
2023-02-18T12:08:24.326Z,6.97
2023-02-18T12:11:01.449Z,6.80
2023-02-18T12:13:34.711Z,6.32
2023-02-18T12:16:30.887Z,6.50
2023-02-18T12:19:42.532Z,6.07
2023-02-18T12:22:50.873Z,5.97
2023-02-18T12:25:40.131Z,7.20
2023-02-18T12:28:25.821Z,6.90
2023-02-18T12:31:15.126Z,6.60
2023-02-18T12:33:48.437Z,5.77
2023-02-18T12:36:40.312Z,5.73
2023-02-18T12:39:31.162Z,5.57
2023-02-18T12:42:07.736Z,6.13
2023-02-18T12:44:45.673Z,5.75
2023-02-18T12:47:37.664Z,5.63
2023-02-18T12:50:42.876Z,6.20
2023-02-18T12:53:16.222Z,6.47
2023-02-18T12:55:51.913Z,6.27
2023-02-18T12:58:30.518Z,6.53
2023-02-18T13:01:23.155Z,6.70
2023-02-18T13:04:18.512Z,6.77
2023-02-18T13:07:01.702Z,6.63
2023-02-18T13:09:50.420Z,6.57
2023-02-18T13:12:29.785Z,7.30
2023-02-18T13:15:02.203Z,8.20
2023-02-18T13:17:36.148Z,6.53
2023-02-18T13:20:14.896Z,7.00
2023-02-18T13:22:43.734Z,7.27
2023-02-18T13:25:15.382Z,6.20
2023-02-18T13:27:48.809Z,7.50
2023-02-18T13:30:45.437Z,6.93
2023-02-18T13:33:38.053Z,8.20
2023-02-18T13:36:23.642Z,7.67
2023-02-18T13:39:01.472Z,7.30
2023-02-18T13:41:28.983Z,6.90
2023-02-18T13:43:56.452Z,6.17
2023-02-18T13:46:25.384Z,6.53
2023-02-18T13:49:00.909Z,5.37
2023-02-18T13:51:41.435Z,6.07
2023-02-18T13:54:26.043Z,6.90
2023-02-18T13:57:05.301Z,6.00
2023-02-18T13:59:44.398Z,5.23
2023-02-18T14:02:21.360Z,6.90
2023-02-18T14:05:09.398Z,7.47
2023-02-18T14:07:44.382Z,8.38
2023-02-18T14:10:18.653Z,7.63
2023-02-18T14:12:58.378Z,6.70
2023-02-18T14:15:25.872Z,7.00
2023-02-18T14:18:12.010Z,7.37
2023-02-18T14:20:39.444Z,7.50
2023-02-18T14:23:19.122Z,7.77
2023-02-18T14:25:57.713Z,7.97
2023-02-18T14:28:33.961Z,6.80
2023-02-18T14:31:13.998Z,6.70
2023-02-18T14:34:04.657Z,6.97
2023-02-18T14:37:09.049Z,7.93
2023-02-18T14:39:48.494Z,7.50
2023-02-18T14:42:56.526Z,7.27
2023-02-18T14:45:31.392Z,7.60
2023-02-18T14:48:17.403Z,7.67
2023-02-18T14:50:50.074Z,7.27
2023-02-18T14:53:21.932Z,7.27
2023-02-18T14:55:56.522Z,6.40
2023-02-18T14:58:32.798Z,5.93
2023-02-18T15:01:30.830Z,5.70
2023-02-18T15:03:58.610Z,5.57
2023-02-18T15:06:33.963Z,5.17
2023-02-18T15:09:13.155Z,6.30
2023-02-18T15:11:51.566Z,6.23
2023-02-18T15:14:24.669Z,5.93
2023-02-18T15:16:53.477Z,6.03
2023-02-18T15:19:24.373Z,6.40
2023-02-18T15:21:55.340Z,6.20
2023-02-18T15:24:32.786Z,8.63
2023-02-18T15:27:04.280Z,7.60
2023-02-18T15:29:36.681Z,6.87
2023-02-18T15:32:16.914Z,7.00
2023-02-18T15:34:45.550Z,5.63
2023-02-18T15:37:15.157Z,5.37
2023-02-18T15:39:43.891Z,5.30
2023-02-18T15:42:20.316Z,5.13
2023-02-18T15:44:51.142Z,4.93
2023-02-18T15:47:20.194Z,5.60
2023-02-18T15:49:54.126Z,5.00
2023-02-18T15:52:32.002Z,5.20
2023-02-18T15:55:15.865Z,5.97
2023-02-18T15:57:43.732Z,5.47
2023-02-18T16:00:20.238Z,5.47
2023-02-18T16:03:05.014Z,5.83
2023-02-18T16:05:38.317Z,5.23
2023-02-18T16:08:14.057Z,6.20
2023-02-18T16:10:51.285Z,6.20
2023-02-18T16:13:19.685Z,7.05
2023-02-18T16:15:50.572Z,5.73
2023-02-18T16:18:42.623Z,5.70
2023-02-18T16:21:19.205Z,6.00
2023-02-18T16:23:56.548Z,6.13
2023-02-18T16:26:43.653Z,6.18
2023-02-18T16:29:16.002Z,6.57
2023-02-18T16:31:43.920Z,5.13
2023-02-18T16:34:11.431Z,6.07
2023-02-18T16:36:59.035Z,5.67
2023-02-18T16:39:29.253Z,6.47
2023-02-18T16:41:59.263Z,6.13
2023-02-18T16:44:26.790Z,5.63
2023-02-18T16:46:54.247Z,6.10
2023-02-18T16:49:21.848Z,6.50
2023-02-18T16:51:49.365Z,5.87
2023-02-18T16:54:16.850Z,5.80
2023-02-18T16:56:44.510Z,5.20
2023-02-18T16:59:12.096Z,6.07
2023-02-18T17:01:44.981Z,5.83
2023-02-18T17:04:18.268Z,6.10
2023-02-18T17:06:46.481Z,5.77
2023-02-18T17:09:17.100Z,6.77
2023-02-18T17:11:47.506Z,5.67
2023-02-18T17:14:19.937Z,6.17
2023-02-18T17:16:49.136Z,6.43
2023-02-18T17:19:17.203Z,6.83
2023-02-18T17:21:46.476Z,6.53
2023-02-18T17:24:18.372Z,5.60
2023-02-18T17:26:45.825Z,5.80
2023-02-18T17:29:13.971Z,6.83
2023-02-18T17:31:45.147Z,6.40
2023-02-18T17:34:19.528Z,6.27
2023-02-18T17:36:47.283Z,6.90
2023-02-18T17:39:17.463Z,6.70
2023-02-18T17:41:45.177Z,6.53
2023-02-18T17:44:16.760Z,6.33
2023-02-18T17:46:44.695Z,6.43
2023-02-18T17:49:15.137Z,6.10
2023-02-18T17:51:43.344Z,6.13
2023-02-18T17:54:16.517Z,6.20
2023-02-18T17:56:44.188Z,5.93
2023-02-18T17:59:12.059Z,6.33
2023-02-18T18:01:40.073Z,5.93
2023-02-18T18:04:19.147Z,6.30
2023-02-18T18:06:47.675Z,7.37
2023-02-18T18:09:15.232Z,6.73
2023-02-18T18:11:42.899Z,7.23
2023-02-18T18:14:16.081Z,6.80
2023-02-18T18:16:43.695Z,6.77
2023-02-18T18:19:11.198Z,6.50
2023-02-18T18:21:38.900Z,6.80
2023-02-18T18:24:06.756Z,6.63
2023-02-18T18:26:34.178Z,7.37
2023-02-18T18:29:01.987Z,7.27
2023-02-18T18:31:32.717Z,7.23
2023-02-18T18:34:01.440Z,5.87
2023-02-18T18:36:29.005Z,6.53
2023-02-18T18:38:56.606Z,6.57
2023-02-18T18:41:24.205Z,5.67
2023-02-18T18:43:51.870Z,6.40
2023-02-18T18:46:19.459Z,6.17
2023-02-18T18:48:47.084Z,7.37
2023-02-18T18:51:22.012Z,5.57
2023-02-18T18:53:49.549Z,7.50
2023-02-18T18:56:17.092Z,6.33
2023-02-18T18:58:44.635Z,6.93
2023-02-18T19:01:22.770Z,6.20
2023-02-18T19:03:50.422Z,6.50
2023-02-18T19:06:18.071Z,5.77
2023-02-18T19:08:47.994Z,6.83
2023-02-18T19:11:16.974Z,7.83
2023-02-18T19:13:45.827Z,5.83
2023-02-18T19:16:22.379Z,6.57
2023-02-18T19:18:50.439Z,5.70
2023-02-18T19:21:18.061Z,6.60
2023-02-18T19:23:45.815Z,6.83
2023-02-18T19:26:16.207Z,5.87
2023-02-18T19:28:45.089Z,6.27
2023-02-18T19:31:13.141Z,6.37
2023-02-18T19:33:41.476Z,5.67
2023-02-18T19:36:11.178Z,7.50
2023-02-18T19:38:39.443Z,6.10
2023-02-18T19:41:12.770Z,6.70
2023-02-18T19:43:42.894Z,6.50
2023-02-18T19:46:17.042Z,7.00
2023-02-18T19:48:49.604Z,7.30
2023-02-18T19:51:17.387Z,6.30
2023-02-18T19:53:46.133Z,6.13
2023-02-18T19:56:13.745Z,6.10
2023-02-18T19:58:41.763Z,6.63
2023-02-18T20:01:13.855Z,6.63
2023-02-18T20:03:41.785Z,6.53
2023-02-18T20:06:17.502Z,6.80
2023-02-18T20:08:46.139Z,6.63
2023-02-18T20:11:13.884Z,6.70
2023-02-18T20:13:42.198Z,6.20
2023-02-18T20:16:11.718Z,5.43
2023-02-18T20:18:39.356Z,6.93
2023-02-18T20:21:09.765Z,6.10
2023-02-18T20:23:37.569Z,7.10
2023-02-18T20:26:12.989Z,7.00
2023-02-18T20:28:41.019Z,6.67
2023-02-18T20:31:12.373Z,6.57
2023-02-18T20:33:42.306Z,7.43
2023-02-18T20:36:12.296Z,6.13
2023-02-18T20:38:39.929Z,6.37
2023-02-18T20:41:14.484Z,6.67
2023-02-18T20:43:42.097Z,7.40
2023-02-18T20:46:13.290Z,7.07
2023-02-18T20:48:40.916Z,7.33
2023-02-18T20:51:13.956Z,7.10
2023-02-18T20:53:42.656Z,7.87
2023-02-18T20:56:10.677Z,7.90
2023-02-18T20:58:38.941Z,7.57
2023-02-18T21:01:12.629Z,6.83
2023-02-18T21:03:41.273Z,7.60
2023-02-18T21:06:15.576Z,8.10
2023-02-18T21:08:45.393Z,7.00
2023-02-18T21:11:22.447Z,7.30
2023-02-18T21:13:51.779Z,7.50
2023-02-18T21:16:21.370Z,7.50
2023-02-18T21:18:49.861Z,7.80
2023-02-18T21:21:19.920Z,7.40
2023-02-18T21:23:47.723Z,6.43
2023-02-18T21:26:19.122Z,6.90
2023-02-18T21:28:48.785Z,6.10
2023-02-18T21:31:21.011Z,6.93
2023-02-18T21:33:51.050Z,6.87
2023-02-18T21:36:19.594Z,8.30
2023-02-18T21:38:56.096Z,7.50
2023-02-18T21:41:24.534Z,7.07
2023-02-18T21:43:52.300Z,7.90
2023-02-18T21:46:24.006Z,6.83
2023-02-18T21:49:06.236Z,8.30
2023-02-18T21:51:57.795Z,7.10
2023-02-18T21:54:27.255Z,7.43
2023-02-18T21:56:56.408Z,7.27
2023-02-18T21:59:29.223Z,7.47
2023-02-18T22:02:00.409Z,7.40
2023-02-18T22:04:33.290Z,7.13
2023-02-18T22:07:01.540Z,7.40
2023-02-18T22:09:29.738Z,6.07
2023-02-18T22:11:57.740Z,7.60
2023-02-18T22:14:25.648Z,6.90
2023-02-18T22:16:53.281Z,6.93
2023-02-18T22:19:20.897Z,7.13
2023-02-18T22:21:49.010Z,7.77
2023-02-18T22:24:18.112Z,7.40
2023-02-18T22:26:46.852Z,7.27
2023-02-18T22:29:15.413Z,7.97
2023-02-18T22:31:43.508Z,7.57
2023-02-18T22:34:11.407Z,7.60
2023-02-18T22:36:39.211Z,9.03
2023-02-18T22:39:07.713Z,7.73
2023-02-18T22:41:35.651Z,7.13
2023-02-18T22:44:07.692Z,8.57
2023-02-18T22:46:36.794Z,7.43
2023-02-18T22:49:06.616Z,7.63
2023-02-18T22:51:40.546Z,7.40
2023-02-18T22:54:15.732Z,8.13
2023-02-18T22:56:44.802Z,7.33
2023-02-18T22:59:14.334Z,7.30
2023-02-18T23:01:44.947Z,8.10
2023-02-18T23:04:15.265Z,8.10
2023-02-18T23:06:45.160Z,7.73
2023-02-18T23:09:24.144Z,7.90
2023-02-18T23:11:58.165Z,8.30
2023-02-18T23:14:28.343Z,8.30
2023-02-18T23:17:12.999Z,7.87
2023-02-18T23:19:48.826Z,8.27
2023-02-18T23:22:28.376Z,7.77
2023-02-18T23:25:00.363Z,7.90
2023-02-18T23:27:28.549Z,8.30
2023-02-18T23:29:56.643Z,7.70
2023-02-18T23:32:24.629Z,8.83
2023-02-18T23:34:52.063Z,8.30
2023-02-18T23:37:40.635Z,7.63
2023-02-18T23:40:09.649Z,7.87
2023-02-18T23:42:37.118Z,8.93
2023-02-18T23:45:04.912Z,8.23
2023-02-18T23:47:32.494Z,7.27
2023-02-18T23:50:00.001Z,8.03
2023-02-18T23:52:27.484Z,8.30
2023-02-18T23:54:54.932Z,8.73
2023-02-18T23:57:22.401Z,8.47
2023-02-18T23:59:49.915Z,8.20
